sensor_id;sensor_type;location;lat;lon;timestamp;temperature;humidity
5027;DHT22;2532;52.480;13.354;2022-10-16T00:01:14;17.40;99.60
5027;DHT22;2532;52.480;13.354;2022-10-16T00:03:42;17.40;99.60
5027;DHT22;2532;52.480;13.354;2022-10-16T00:06:10;17.50;99.60
5027;DHT22;2532;52.480;13.354;2022-10-16T00:08:38;17.50;99.60
5027;DHT22;2532;52.480;13.354;2022-10-16T00:11:07;17.60;99.70
5027;DHT22;2532;52.480;13.354;2022-10-16T00:13:36;17.60;99.60
5027;DHT22;2532;52.480;13.354;2022-10-16T00:16:04;17.60;99.60
5027;DHT22;2532;52.480;13.354;2022-10-16T00:18:31;17.60;99.50
5027;DHT22;2532;52.480;13.354;2022-10-16T00:21:02;17.60;99.50
5027;DHT22;2532;52.480;13.354;2022-10-16T00:23:30;17.60;99.50
5027;DHT22;2532;52.480;13.354;2022-10-16T00:25:58;17.70;99.50
5027;DHT22;2532;52.480;13.354;2022-10-16T00:28:26;17.70;99.40
5027;DHT22;2532;52.480;13.354;2022-10-16T00:30:54;17.70;99.40
5027;DHT22;2532;52.480;13.354;2022-10-16T00:33:22;17.70;99.40
5027;DHT22;2532;52.480;13.354;2022-10-16T00:35:49;17.80;99.40
5027;DHT22;2532;52.480;13.354;2022-10-16T00:38:15;17.80;99.40
5027;DHT22;2532;52.480;13.354;2022-10-16T00:40:43;17.80;99.30
5027;DHT22;2532;52.480;13.354;2022-10-16T00:43:13;17.80;99.60
5027;DHT22;2532;52.480;13.354;2022-10-16T00:45:41;17.80;99.30
5027;DHT22;2532;52.480;13.354;2022-10-16T00:48:11;17.80;99.30
5027;DHT22;2532;52.480;13.354;2022-10-16T00:50:39;17.90;99.30
5027;DHT22;2532;52.480;13.354;2022-10-16T00:53:09;17.80;99.20
5027;DHT22;2532;52.480;13.354;2022-10-16T00:55:36;17.90;99.50
5027;DHT22;2532;52.480;13.354;2022-10-16T00:58:03;17.90;99.20
5027;DHT22;2532;52.480;13.354;2022-10-16T01:00:30;17.90;99.20
5027;DHT22;2532;52.480;13.354;2022-10-16T01:02:58;17.90;99.20
5027;DHT22;2532;52.480;13.354;2022-10-16T01:05:32;17.90;99.20
5027;DHT22;2532;52.480;13.354;2022-10-16T01:08:07;17.90;99.20
5027;DHT22;2532;52.480;13.354;2022-10-16T01:10:39;17.90;99.40
5027;DHT22;2532;52.480;13.354;2022-10-16T01:13:09;17.90;99.10
5027;DHT22;2532;52.480;13.354;2022-10-16T01:15:40;17.90;99.10
5027;DHT22;2532;52.480;13.354;2022-10-16T01:18:13;17.90;99.10
5027;DHT22;2532;52.480;13.354;2022-10-16T01:20:46;17.90;99.10
5027;DHT22;2532;52.480;13.354;2022-10-16T01:23:24;17.90;99.10
5027;DHT22;2532;52.480;13.354;2022-10-16T01:26:14;17.90;99.10
5027;DHT22;2532;52.480;13.354;2022-10-16T01:28:51;17.90;99.10
5027;DHT22;2532;52.480;13.354;2022-10-16T01:31:23;17.80;99.10
5027;DHT22;2532;52.480;13.354;2022-10-16T01:33:57;17.80;99.10
5027;DHT22;2532;52.480;13.354;2022-10-16T01:36:28;17.80;99.20
5027;DHT22;2532;52.480;13.354;2022-10-16T01:39:00;17.80;99.20
5027;DHT22;2532;52.480;13.354;2022-10-16T01:41:30;17.80;99.20
5027;DHT22;2532;52.480;13.354;2022-10-16T01:44:04;17.80;99.20
5027;DHT22;2532;52.480;13.354;2022-10-16T01:46:35;17.80;99.20
5027;DHT22;2532;52.480;13.354;2022-10-16T01:49:03;17.80;99.20
5027;DHT22;2532;52.480;13.354;2022-10-16T01:51:30;17.80;99.20
5027;DHT22;2532;52.480;13.354;2022-10-16T01:54:00;17.80;99.20
5027;DHT22;2532;52.480;13.354;2022-10-16T01:56:28;17.80;99.20
5027;DHT22;2532;52.480;13.354;2022-10-16T01:59:00;17.80;99.30
5027;DHT22;2532;52.480;13.354;2022-10-16T02:01:30;17.80;99.30
5027;DHT22;2532;52.480;13.354;2022-10-16T02:04:02;17.70;99.30
5027;DHT22;2532;52.480;13.354;2022-10-16T02:06:30;17.70;99.30
5027;DHT22;2532;52.480;13.354;2022-10-16T02:08:56;17.70;99.30
5027;DHT22;2532;52.480;13.354;2022-10-16T02:11:24;17.70;99.30
5027;DHT22;2532;52.480;13.354;2022-10-16T02:13:54;17.70;99.40
5027;DHT22;2532;52.480;13.354;2022-10-16T02:16:33;17.70;99.40
5027;DHT22;2532;52.480;13.354;2022-10-16T02:19:00;17.60;99.40
5027;DHT22;2532;52.480;13.354;2022-10-16T02:21:31;17.60;99.40
5027;DHT22;2532;52.480;13.354;2022-10-16T02:24:03;17.60;99.50
5027;DHT22;2532;52.480;13.354;2022-10-16T02:26:37;17.60;99.50
5027;DHT22;2532;52.480;13.354;2022-10-16T02:29:08;17.60;99.50
5027;DHT22;2532;52.480;13.354;2022-10-16T02:31:41;17.60;99.50
5027;DHT22;2532;52.480;13.354;2022-10-16T02:34:09;17.60;99.60
5027;DHT22;2532;52.480;13.354;2022-10-16T02:36:38;17.60;99.60
5027;DHT22;2532;52.480;13.354;2022-10-16T02:39:06;17.60;99.60
5027;DHT22;2532;52.480;13.354;2022-10-16T02:41:33;17.60;99.60
5027;DHT22;2532;52.480;13.354;2022-10-16T02:44:00;17.60;99.60
5027;DHT22;2532;52.480;13.354;2022-10-16T02:46:27;17.60;99.60
5027;DHT22;2532;52.480;13.354;2022-10-16T02:48:55;17.60;99.50
5027;DHT22;2532;52.480;13.354;2022-10-16T02:51:22;17.60;99.50
5027;DHT22;2532;52.480;13.354;2022-10-16T02:53:49;17.60;99.50
5027;DHT22;2532;52.480;13.354;2022-10-16T02:56:15;17.60;99.50
5027;DHT22;2532;52.480;13.354;2022-10-16T02:58:42;17.60;99.50
5027;DHT22;2532;52.480;13.354;2022-10-16T03:01:09;17.60;99.50
5027;DHT22;2532;52.480;13.354;2022-10-16T03:03:38;17.60;99.50
5027;DHT22;2532;52.480;13.354;2022-10-16T03:06:06;17.60;99.50
5027;DHT22;2532;52.480;13.354;2022-10-16T03:08:33;17.60;99.50
5027;DHT22;2532;52.480;13.354;2022-10-16T03:11:00;17.60;99.40
5027;DHT22;2532;52.480;13.354;2022-10-16T03:13:27;17.60;99.40
5027;DHT22;2532;52.480;13.354;2022-10-16T03:15:54;17.60;99.40
5027;DHT22;2532;52.480;13.354;2022-10-16T03:18:20;17.60;99.40
5027;DHT22;2532;52.480;13.354;2022-10-16T03:20:47;17.60;99.50
5027;DHT22;2532;52.480;13.354;2022-10-16T03:23:16;17.50;99.40
5027;DHT22;2532;52.480;13.354;2022-10-16T03:25:42;17.60;99.50
5027;DHT22;2532;52.480;13.354;2022-10-16T03:28:11;17.50;99.50
5027;DHT22;2532;52.480;13.354;2022-10-16T03:30:38;17.50;99.50
5027;DHT22;2532;52.480;13.354;2022-10-16T03:33:05;17.50;99.50
5027;DHT22;2532;52.480;13.354;2022-10-16T03:35:32;17.50;99.50
5027;DHT22;2532;52.480;13.354;2022-10-16T03:37:59;17.50;99.50
5027;DHT22;2532;52.480;13.354;2022-10-16T03:40:27;17.50;99.60
5027;DHT22;2532;52.480;13.354;2022-10-16T03:42:54;17.40;99.50
5027;DHT22;2532;52.480;13.354;2022-10-16T03:45:22;17.40;99.50
5027;DHT22;2532;52.480;13.354;2022-10-16T03:47:49;17.40;99.60
5027;DHT22;2532;52.480;13.354;2022-10-16T03:50:16;17.40;99.60
5027;DHT22;2532;52.480;13.354;2022-10-16T03:52:43;17.40;99.90
5027;DHT22;2532;52.480;13.354;2022-10-16T03:55:10;17.40;99.70
5027;DHT22;2532;52.480;13.354;2022-10-16T03:57:38;17.30;99.70
5027;DHT22;2532;52.480;13.354;2022-10-16T04:00:06;17.30;99.70
5027;DHT22;2532;52.480;13.354;2022-10-16T04:02:33;17.30;99.70
5027;DHT22;2532;52.480;13.354;2022-10-16T04:05:00;17.30;99.70
5027;DHT22;2532;52.480;13.354;2022-10-16T04:07:26;17.30;99.80
5027;DHT22;2532;52.480;13.354;2022-10-16T04:09:54;17.20;99.80
5027;DHT22;2532;52.480;13.354;2022-10-16T04:12:21;17.30;99.80
5027;DHT22;2532;52.480;13.354;2022-10-16T04:14:49;17.20;99.90
5027;DHT22;2532;52.480;13.354;2022-10-16T04:17:16;17.20;99.80
5027;DHT22;2532;52.480;13.354;2022-10-16T04:19:43;17.20;99.90
5027;DHT22;2532;52.480;13.354;2022-10-16T04:22:10;17.20;99.90
5027;DHT22;2532;52.480;13.354;2022-10-16T04:24:37;17.20;99.90
5027;DHT22;2532;52.480;13.354;2022-10-16T04:27:03;17.20;99.90
5027;DHT22;2532;52.480;13.354;2022-10-16T04:29:30;17.20;99.90
5027;DHT22;2532;52.480;13.354;2022-10-16T04:31:58;17.20;99.90
5027;DHT22;2532;52.480;13.354;2022-10-16T04:34:25;17.10;99.90
5027;DHT22;2532;52.480;13.354;2022-10-16T04:36:52;17.10;99.90
5027;DHT22;2532;52.480;13.354;2022-10-16T04:39:19;17.10;99.90
5027;DHT22;2532;52.480;13.354;2022-10-16T04:41:46;17.20;99.90
5027;DHT22;2532;52.480;13.354;2022-10-16T04:44:13;17.10;99.90
5027;DHT22;2532;52.480;13.354;2022-10-16T04:46:39;17.10;99.90
5027;DHT22;2532;52.480;13.354;2022-10-16T04:49:08;17.10;99.90
5027;DHT22;2532;52.480;13.354;2022-10-16T04:51:34;17.10;99.90
5027;DHT22;2532;52.480;13.354;2022-10-16T04:54:01;17.10;99.90
5027;DHT22;2532;52.480;13.354;2022-10-16T04:56:28;17.10;99.90
5027;DHT22;2532;52.480;13.354;2022-10-16T04:58:55;17.10;99.90
5027;DHT22;2532;52.480;13.354;2022-10-16T05:01:22;17.00;99.90
5027;DHT22;2532;52.480;13.354;2022-10-16T05:03:49;17.00;99.90
5027;DHT22;2532;52.480;13.354;2022-10-16T05:06:17;17.00;99.90
5027;DHT22;2532;52.480;13.354;2022-10-16T05:08:44;17.00;99.90
5027;DHT22;2532;52.480;13.354;2022-10-16T05:11:11;17.00;99.90
5027;DHT22;2532;52.480;13.354;2022-10-16T05:13:37;17.00;99.90
5027;DHT22;2532;52.480;13.354;2022-10-16T05:16:05;17.00;99.90
5027;DHT22;2532;52.480;13.354;2022-10-16T05:18:32;16.90;99.90
5027;DHT22;2532;52.480;13.354;2022-10-16T05:20:59;16.90;99.90
5027;DHT22;2532;52.480;13.354;2022-10-16T05:23:27;16.90;99.90
5027;DHT22;2532;52.480;13.354;2022-10-16T05:25:55;16.90;99.90
5027;DHT22;2532;52.480;13.354;2022-10-16T05:28:23;16.90;99.90
5027;DHT22;2532;52.480;13.354;2022-10-16T05:30:50;16.90;99.90
5027;DHT22;2532;52.480;13.354;2022-10-16T05:33:19;16.90;99.90
5027;DHT22;2532;52.480;13.354;2022-10-16T05:35:46;16.80;99.90
5027;DHT22;2532;52.480;13.354;2022-10-16T05:38:13;16.80;99.90
5027;DHT22;2532;52.480;13.354;2022-10-16T05:40:42;16.80;99.90
5027;DHT22;2532;52.480;13.354;2022-10-16T05:43:09;16.80;99.90
5027;DHT22;2532;52.480;13.354;2022-10-16T05:45:35;16.80;99.90
5027;DHT22;2532;52.480;13.354;2022-10-16T05:48:03;16.80;99.90
5027;DHT22;2532;52.480;13.354;2022-10-16T05:50:30;16.70;99.90
5027;DHT22;2532;52.480;13.354;2022-10-16T05:52:56;16.70;99.90
5027;DHT22;2532;52.480;13.354;2022-10-16T05:55:23;16.70;99.90
5027;DHT22;2532;52.480;13.354;2022-10-16T05:57:54;16.70;99.90
5027;DHT22;2532;52.480;13.354;2022-10-16T06:00:20;16.70;99.90
5027;DHT22;2532;52.480;13.354;2022-10-16T06:02:47;16.70;99.90
5027;DHT22;2532;52.480;13.354;2022-10-16T06:05:14;16.70;99.90
5027;DHT22;2532;52.480;13.354;2022-10-16T06:07:41;16.70;99.90
5027;DHT22;2532;52.480;13.354;2022-10-16T06:10:08;16.60;99.90
5027;DHT22;2532;52.480;13.354;2022-10-16T06:12:35;16.60;99.90
5027;DHT22;2532;52.480;13.354;2022-10-16T06:15:04;16.60;99.90
5027;DHT22;2532;52.480;13.354;2022-10-16T06:17:31;16.60;99.90
5027;DHT22;2532;52.480;13.354;2022-10-16T06:19:58;16.60;99.90
5027;DHT22;2532;52.480;13.354;2022-10-16T06:22:25;16.60;99.90
5027;DHT22;2532;52.480;13.354;2022-10-16T06:24:51;16.70;99.90
5027;DHT22;2532;52.480;13.354;2022-10-16T06:27:18;16.70;99.90
5027;DHT22;2532;52.480;13.354;2022-10-16T06:29:45;16.70;99.90
5027;DHT22;2532;52.480;13.354;2022-10-16T06:32:13;16.70;99.90
5027;DHT22;2532;52.480;13.354;2022-10-16T06:34:40;16.70;99.90
5027;DHT22;2532;52.480;13.354;2022-10-16T06:37:07;16.80;99.90
5027;DHT22;2532;52.480;13.354;2022-10-16T06:39:34;16.80;99.90
5027;DHT22;2532;52.480;13.354;2022-10-16T06:42:00;16.80;99.90
5027;DHT22;2532;52.480;13.354;2022-10-16T06:44:27;16.80;99.90
5027;DHT22;2532;52.480;13.354;2022-10-16T06:46:54;16.90;99.90
5027;DHT22;2532;52.480;13.354;2022-10-16T06:49:23;16.90;99.90
5027;DHT22;2532;52.480;13.354;2022-10-16T06:51:50;16.90;99.90
5027;DHT22;2532;52.480;13.354;2022-10-16T06:54:17;17.00;99.90
5027;DHT22;2532;52.480;13.354;2022-10-16T06:56:44;17.00;99.90
5027;DHT22;2532;52.480;13.354;2022-10-16T06:59:11;17.00;99.90
5027;DHT22;2532;52.480;13.354;2022-10-16T07:01:38;17.10;99.90
5027;DHT22;2532;52.480;13.354;2022-10-16T07:04:05;17.10;99.90
5027;DHT22;2532;52.480;13.354;2022-10-16T07:06:33;17.10;99.90
5027;DHT22;2532;52.480;13.354;2022-10-16T07:09:03;17.10;99.90
5027;DHT22;2532;52.480;13.354;2022-10-16T07:11:31;17.20;99.90
5027;DHT22;2532;52.480;13.354;2022-10-16T07:13:58;17.40;99.90
5027;DHT22;2532;52.480;13.354;2022-10-16T07:16:26;17.40;99.90
5027;DHT22;2532;52.480;13.354;2022-10-16T07:18:54;17.40;99.90
5027;DHT22;2532;52.480;13.354;2022-10-16T07:21:24;17.50;99.90
5027;DHT22;2532;52.480;13.354;2022-10-16T07:23:54;17.50;99.90
5027;DHT22;2532;52.480;13.354;2022-10-16T07:26:21;17.60;99.90
5027;DHT22;2532;52.480;13.354;2022-10-16T07:28:48;17.60;99.90
5027;DHT22;2532;52.480;13.354;2022-10-16T07:31:16;17.60;99.90
5027;DHT22;2532;52.480;13.354;2022-10-16T07:33:44;17.70;99.80
5027;DHT22;2532;52.480;13.354;2022-10-16T07:36:14;17.70;99.80
5027;DHT22;2532;52.480;13.354;2022-10-16T07:38:41;17.80;99.80
5027;DHT22;2532;52.480;13.354;2022-10-16T07:41:12;17.90;99.80
5027;DHT22;2532;52.480;13.354;2022-10-16T07:43:39;17.90;99.80
5027;DHT22;2532;52.480;13.354;2022-10-16T07:46:07;18.00;99.60
5027;DHT22;2532;52.480;13.354;2022-10-16T07:48:34;18.00;99.60
5027;DHT22;2532;52.480;13.354;2022-10-16T07:51:03;18.10;99.60
5027;DHT22;2532;52.480;13.354;2022-10-16T07:53:31;18.10;99.50
5027;DHT22;2532;52.480;13.354;2022-10-16T07:55:58;18.10;99.40
5027;DHT22;2532;52.480;13.354;2022-10-16T07:58:27;18.20;99.40
5027;DHT22;2532;52.480;13.354;2022-10-16T08:00:54;18.20;99.30
5027;DHT22;2532;52.480;13.354;2022-10-16T08:03:21;18.30;99.30
5027;DHT22;2532;52.480;13.354;2022-10-16T08:05:48;18.30;99.30
5027;DHT22;2532;52.480;13.354;2022-10-16T08:08:16;18.30;99.30
5027;DHT22;2532;52.480;13.354;2022-10-16T08:10:44;18.40;99.30
5027;DHT22;2532;52.480;13.354;2022-10-16T08:13:10;18.40;99.20
5027;DHT22;2532;52.480;13.354;2022-10-16T08:15:41;18.40;99.20
5027;DHT22;2532;52.480;13.354;2022-10-16T08:18:09;18.50;99.30
5027;DHT22;2532;52.480;13.354;2022-10-16T08:20:37;18.50;99.10
5027;DHT22;2532;52.480;13.354;2022-10-16T08:23:04;18.60;99.10
5027;DHT22;2532;52.480;13.354;2022-10-16T08:25:34;18.60;99.00
5027;DHT22;2532;52.480;13.354;2022-10-16T08:28:03;18.60;98.90
5027;DHT22;2532;52.480;13.354;2022-10-16T08:30:31;18.70;99.00
5027;DHT22;2532;52.480;13.354;2022-10-16T08:33:00;18.70;98.90
5027;DHT22;2532;52.480;13.354;2022-10-16T08:35:27;18.70;98.90
5027;DHT22;2532;52.480;13.354;2022-10-16T08:37:54;18.70;98.80
5027;DHT22;2532;52.480;13.354;2022-10-16T08:40:24;18.80;98.80
5027;DHT22;2532;52.480;13.354;2022-10-16T08:43:04;18.80;99.00
5027;DHT22;2532;52.480;13.354;2022-10-16T08:45:41;18.80;98.50
5027;DHT22;2532;52.480;13.354;2022-10-16T08:48:18;18.90;98.40
5027;DHT22;2532;52.480;13.354;2022-10-16T08:50:48;19.00;98.30
5027;DHT22;2532;52.480;13.354;2022-10-16T08:53:20;19.00;98.30
5027;DHT22;2532;52.480;13.354;2022-10-16T08:55:51;19.00;98.20
5027;DHT22;2532;52.480;13.354;2022-10-16T08:58:20;19.00;98.20
5027;DHT22;2532;52.480;13.354;2022-10-16T09:00:49;19.00;98.20
5027;DHT22;2532;52.480;13.354;2022-10-16T09:03:27;19.00;98.40
5027;DHT22;2532;52.480;13.354;2022-10-16T09:06:19;19.10;98.00
5027;DHT22;2532;52.480;13.354;2022-10-16T09:08:55;19.10;98.00
5027;DHT22;2532;52.480;13.354;2022-10-16T09:11:33;19.10;98.00
5027;DHT22;2532;52.480;13.354;2022-10-16T09:14:11;19.20;97.90
5027;DHT22;2532;52.480;13.354;2022-10-16T09:16:42;19.40;97.90
5027;DHT22;2532;52.480;13.354;2022-10-16T09:19:16;19.30;97.70
5027;DHT22;2532;52.480;13.354;2022-10-16T09:21:46;19.30;97.90
5027;DHT22;2532;52.480;13.354;2022-10-16T09:24:15;19.40;97.70
5027;DHT22;2532;52.480;13.354;2022-10-16T09:26:43;19.30;97.50
5027;DHT22;2532;52.480;13.354;2022-10-16T09:29:11;19.40;97.80
5027;DHT22;2532;52.480;13.354;2022-10-16T09:31:39;19.40;97.30
5027;DHT22;2532;52.480;13.354;2022-10-16T09:34:08;19.50;97.30
5027;DHT22;2532;52.480;13.354;2022-10-16T09:36:43;19.50;97.30
5027;DHT22;2532;52.480;13.354;2022-10-16T09:39:11;19.50;97.20
5027;DHT22;2532;52.480;13.354;2022-10-16T09:41:40;19.50;97.10
5027;DHT22;2532;52.480;13.354;2022-10-16T09:44:19;19.50;97.00
5027;DHT22;2532;52.480;13.354;2022-10-16T09:46:47;19.60;97.00
5027;DHT22;2532;52.480;13.354;2022-10-16T09:49:21;19.60;97.00
5027;DHT22;2532;52.480;13.354;2022-10-16T09:51:50;19.60;96.90
5027;DHT22;2532;52.480;13.354;2022-10-16T09:54:20;19.60;96.90
5027;DHT22;2532;52.480;13.354;2022-10-16T09:56:48;19.60;96.80
5027;DHT22;2532;52.480;13.354;2022-10-16T09:59:19;19.70;96.70
5027;DHT22;2532;52.480;13.354;2022-10-16T10:01:47;19.70;96.60
5027;DHT22;2532;52.480;13.354;2022-10-16T10:04:15;19.80;96.60
5027;DHT22;2532;52.480;13.354;2022-10-16T10:06:44;19.80;96.60
5027;DHT22;2532;52.480;13.354;2022-10-16T10:09:21;19.90;96.50
5027;DHT22;2532;52.480;13.354;2022-10-16T10:11:51;20.00;96.40
5027;DHT22;2532;52.480;13.354;2022-10-16T10:14:30;20.00;96.20
5027;DHT22;2532;52.480;13.354;2022-10-16T10:17:16;20.10;96.10
5027;DHT22;2532;52.480;13.354;2022-10-16T10:19:47;20.10;96.00
5027;DHT22;2532;52.480;13.354;2022-10-16T10:22:30;20.20;96.00
5027;DHT22;2532;52.480;13.354;2022-10-16T10:25:22;20.20;96.00
5027;DHT22;2532;52.480;13.354;2022-10-16T10:28:04;20.20;95.80
5027;DHT22;2532;52.480;13.354;2022-10-16T10:30:39;20.30;95.70
5027;DHT22;2532;52.480;13.354;2022-10-16T10:33:20;20.40;95.10
5027;DHT22;2532;52.480;13.354;2022-10-16T10:35:55;20.40;94.90
5027;DHT22;2532;52.480;13.354;2022-10-16T10:38:39;20.40;94.90
5027;DHT22;2532;52.480;13.354;2022-10-16T10:41:23;20.40;94.60
5027;DHT22;2532;52.480;13.354;2022-10-16T10:44:01;20.40;94.50
5027;DHT22;2532;52.480;13.354;2022-10-16T10:46:34;20.50;94.20
5027;DHT22;2532;52.480;13.354;2022-10-16T10:49:13;20.50;94.00
5027;DHT22;2532;52.480;13.354;2022-10-16T10:51:54;20.50;93.90
5027;DHT22;2532;52.480;13.354;2022-10-16T10:54:29;20.50;93.70
5027;DHT22;2532;52.480;13.354;2022-10-16T10:57:03;20.50;93.70
5027;DHT22;2532;52.480;13.354;2022-10-16T10:59:56;20.60;93.70
5027;DHT22;2532;52.480;13.354;2022-10-16T11:02:31;20.60;93.50
5027;DHT22;2532;52.480;13.354;2022-10-16T11:05:25;20.60;93.60
5027;DHT22;2532;52.480;13.354;2022-10-16T11:07:58;20.60;93.70
5027;DHT22;2532;52.480;13.354;2022-10-16T11:10:28;20.70;93.50
5027;DHT22;2532;52.480;13.354;2022-10-16T11:13:01;20.80;93.50
5027;DHT22;2532;52.480;13.354;2022-10-16T11:15:34;20.90;93.30
5027;DHT22;2532;52.480;13.354;2022-10-16T11:18:06;21.10;93.30
5027;DHT22;2532;52.480;13.354;2022-10-16T11:20:37;21.10;93.00
5027;DHT22;2532;52.480;13.354;2022-10-16T11:23:10;21.30;92.70
5027;DHT22;2532;52.480;13.354;2022-10-16T11:25:39;21.30;92.40
5027;DHT22;2532;52.480;13.354;2022-10-16T11:28:12;21.30;92.20
5027;DHT22;2532;52.480;13.354;2022-10-16T11:30:44;21.30;92.20
5027;DHT22;2532;52.480;13.354;2022-10-16T11:33:25;21.30;92.60
5027;DHT22;2532;52.480;13.354;2022-10-16T11:36:01;21.30;91.80
5027;DHT22;2532;52.480;13.354;2022-10-16T11:38:32;21.30;91.60
5027;DHT22;2532;52.480;13.354;2022-10-16T11:41:03;21.30;91.20
5027;DHT22;2532;52.480;13.354;2022-10-16T11:43:38;21.30;91.00
5027;DHT22;2532;52.480;13.354;2022-10-16T11:46:10;21.40;91.00
5027;DHT22;2532;52.480;13.354;2022-10-16T11:48:41;21.20;90.90
5027;DHT22;2532;52.480;13.354;2022-10-16T11:51:19;21.20;91.00
5027;DHT22;2532;52.480;13.354;2022-10-16T11:53:53;21.20;91.00
5027;DHT22;2532;52.480;13.354;2022-10-16T11:56:25;21.20;90.80
5027;DHT22;2532;52.480;13.354;2022-10-16T11:58:56;21.20;90.50
5027;DHT22;2532;52.480;13.354;2022-10-16T12:01:30;21.20;90.60
5027;DHT22;2532;52.480;13.354;2022-10-16T12:04:06;21.20;90.30
5027;DHT22;2532;52.480;13.354;2022-10-16T12:06:42;21.20;90.10
5027;DHT22;2532;52.480;13.354;2022-10-16T12:09:14;21.20;90.20
5027;DHT22;2532;52.480;13.354;2022-10-16T12:11:42;21.10;89.30
5027;DHT22;2532;52.480;13.354;2022-10-16T12:14:36;21.10;89.10
5027;DHT22;2532;52.480;13.354;2022-10-16T12:17:23;21.10;88.10
5027;DHT22;2532;52.480;13.354;2022-10-16T12:19:58;21.20;88.30
5027;DHT22;2532;52.480;13.354;2022-10-16T12:22:28;21.10;88.10
5027;DHT22;2532;52.480;13.354;2022-10-16T12:24:56;21.20;88.10
5027;DHT22;2532;52.480;13.354;2022-10-16T12:27:27;21.20;88.30
5027;DHT22;2532;52.480;13.354;2022-10-16T12:29:57;21.30;88.40
5027;DHT22;2532;52.480;13.354;2022-10-16T12:32:29;21.40;88.00
5027;DHT22;2532;52.480;13.354;2022-10-16T12:34:57;21.40;87.90
5027;DHT22;2532;52.480;13.354;2022-10-16T12:37:27;21.40;87.70
5027;DHT22;2532;52.480;13.354;2022-10-16T12:39:55;21.50;88.00
5027;DHT22;2532;52.480;13.354;2022-10-16T12:42:32;21.50;87.60
5027;DHT22;2532;52.480;13.354;2022-10-16T12:45:02;21.60;87.70
5027;DHT22;2532;52.480;13.354;2022-10-16T12:47:49;21.60;87.10
5027;DHT22;2532;52.480;13.354;2022-10-16T12:50:32;21.70;87.40
5027;DHT22;2532;52.480;13.354;2022-10-16T12:53:01;21.70;86.40
5027;DHT22;2532;52.480;13.354;2022-10-16T12:55:33;21.80;86.10
5027;DHT22;2532;52.480;13.354;2022-10-16T12:58:09;21.80;85.60
5027;DHT22;2532;52.480;13.354;2022-10-16T13:00:44;21.90;85.30
5027;DHT22;2532;52.480;13.354;2022-10-16T13:03:43;21.90;84.70
5027;DHT22;2532;52.480;13.354;2022-10-16T13:06:22;22.00;84.90
5027;DHT22;2532;52.480;13.354;2022-10-16T13:09:18;22.00;84.50
5027;DHT22;2532;52.480;13.354;2022-10-16T13:12:16;22.00;84.40
5027;DHT22;2532;52.480;13.354;2022-10-16T13:15:07;22.00;84.50
5027;DHT22;2532;52.480;13.354;2022-10-16T13:17:44;22.10;84.50
5027;DHT22;2532;52.480;13.354;2022-10-16T13:20:17;22.10;84.50
5027;DHT22;2532;52.480;13.354;2022-10-16T13:22:55;22.10;84.50
5027;DHT22;2532;52.480;13.354;2022-10-16T13:25:28;22.10;84.30
5027;DHT22;2532;52.480;13.354;2022-10-16T13:28:01;22.10;84.40
5027;DHT22;2532;52.480;13.354;2022-10-16T13:30:30;22.10;84.10
5027;DHT22;2532;52.480;13.354;2022-10-16T13:33:01;22.10;84.30
5027;DHT22;2532;52.480;13.354;2022-10-16T13:35:30;22.20;84.30
5027;DHT22;2532;52.480;13.354;2022-10-16T13:38:05;22.20;84.00
5027;DHT22;2532;52.480;13.354;2022-10-16T13:40:36;22.20;84.00
5027;DHT22;2532;52.480;13.354;2022-10-16T13:43:03;22.20;83.80
5027;DHT22;2532;52.480;13.354;2022-10-16T13:45:30;22.30;84.00
5027;DHT22;2532;52.480;13.354;2022-10-16T13:48:06;22.30;84.00
5027;DHT22;2532;52.480;13.354;2022-10-16T13:50:37;22.30;84.10
5027;DHT22;2532;52.480;13.354;2022-10-16T13:53:05;22.40;84.10
5027;DHT22;2532;52.480;13.354;2022-10-16T13:55:33;22.40;83.90
5027;DHT22;2532;52.480;13.354;2022-10-16T13:58:07;22.50;83.70
5027;DHT22;2532;52.480;13.354;2022-10-16T14:00:35;22.40;83.60
5027;DHT22;2532;52.480;13.354;2022-10-16T14:03:05;22.40;83.10
5027;DHT22;2532;52.480;13.354;2022-10-16T14:05:33;22.30;83.20
5027;DHT22;2532;52.480;13.354;2022-10-16T14:08:01;22.20;83.20
5027;DHT22;2532;52.480;13.354;2022-10-16T14:10:30;22.20;83.60
5027;DHT22;2532;52.480;13.354;2022-10-16T14:12:59;22.20;83.70
5027;DHT22;2532;52.480;13.354;2022-10-16T14:15:27;22.10;83.50
5027;DHT22;2532;52.480;13.354;2022-10-16T14:17:55;22.20;84.00
5027;DHT22;2532;52.480;13.354;2022-10-16T14:20:26;22.20;83.80
5027;DHT22;2532;52.480;13.354;2022-10-16T14:23:01;22.30;83.70
5027;DHT22;2532;52.480;13.354;2022-10-16T14:25:30;22.40;83.70
5027;DHT22;2532;52.480;13.354;2022-10-16T14:28:00;22.40;83.60
5027;DHT22;2532;52.480;13.354;2022-10-16T14:30:27;22.50;83.20
5027;DHT22;2532;52.480;13.354;2022-10-16T14:32:57;22.60;82.90
5027;DHT22;2532;52.480;13.354;2022-10-16T14:35:31;22.60;82.70
5027;DHT22;2532;52.480;13.354;2022-10-16T14:37:59;22.60;82.10
5027;DHT22;2532;52.480;13.354;2022-10-16T14:40:28;22.60;80.90
5027;DHT22;2532;52.480;13.354;2022-10-16T14:42:55;22.60;80.90
5027;DHT22;2532;52.480;13.354;2022-10-16T14:45:26;22.60;80.70
5027;DHT22;2532;52.480;13.354;2022-10-16T14:47:55;22.60;80.90
5027;DHT22;2532;52.480;13.354;2022-10-16T14:50:23;22.60;81.10
5027;DHT22;2532;52.480;13.354;2022-10-16T14:52:51;22.60;81.40
5027;DHT22;2532;52.480;13.354;2022-10-16T14:55:18;22.50;82.30
5027;DHT22;2532;52.480;13.354;2022-10-16T14:57:45;22.50;81.70
5027;DHT22;2532;52.480;13.354;2022-10-16T15:00:16;22.50;81.80
5027;DHT22;2532;52.480;13.354;2022-10-16T15:02:44;22.40;82.10
5027;DHT22;2532;52.480;13.354;2022-10-16T15:05:13;22.30;81.80
5027;DHT22;2532;52.480;13.354;2022-10-16T15:07:40;22.20;81.50
5027;DHT22;2532;52.480;13.354;2022-10-16T15:10:09;22.20;81.70
5027;DHT22;2532;52.480;13.354;2022-10-16T15:12:36;22.10;81.60
5027;DHT22;2532;52.480;13.354;2022-10-16T15:15:21;22.10;81.60
5027;DHT22;2532;52.480;13.354;2022-10-16T15:17:50;22.00;81.70
5027;DHT22;2532;52.480;13.354;2022-10-16T15:20:19;21.90;81.70
5027;DHT22;2532;52.480;13.354;2022-10-16T15:22:46;21.90;81.60
5027;DHT22;2532;52.480;13.354;2022-10-16T15:25:26;21.90;82.00
5027;DHT22;2532;52.480;13.354;2022-10-16T15:27:54;21.80;82.00
5027;DHT22;2532;52.480;13.354;2022-10-16T15:30:21;21.80;82.00
5027;DHT22;2532;52.480;13.354;2022-10-16T15:32:48;21.70;81.80
5027;DHT22;2532;52.480;13.354;2022-10-16T15:35:15;21.70;81.70
5027;DHT22;2532;52.480;13.354;2022-10-16T15:37:41;21.70;81.80
5027;DHT22;2532;52.480;13.354;2022-10-16T15:40:09;21.60;81.50
5027;DHT22;2532;52.480;13.354;2022-10-16T15:42:38;21.60;81.50
5027;DHT22;2532;52.480;13.354;2022-10-16T15:45:05;21.50;81.60
5027;DHT22;2532;52.480;13.354;2022-10-16T15:47:32;21.50;81.70
5027;DHT22;2532;52.480;13.354;2022-10-16T15:49:59;21.40;81.30
5027;DHT22;2532;52.480;13.354;2022-10-16T15:52:29;21.40;81.60
5027;DHT22;2532;52.480;13.354;2022-10-16T15:54:57;21.40;81.80
5027;DHT22;2532;52.480;13.354;2022-10-16T15:57:24;21.30;81.70
5027;DHT22;2532;52.480;13.354;2022-10-16T15:59:52;21.30;81.80
5027;DHT22;2532;52.480;13.354;2022-10-16T16:02:19;21.20;81.80
5027;DHT22;2532;52.480;13.354;2022-10-16T16:04:46;21.20;81.90